sensor_id;sensor_type;location;lat;lon;timestamp;temperature;humidity
21570;DHT22;57598;50.888;4.746;2023-03-31T00:01:37;11.90;99.90
21570;DHT22;57598;50.888;4.746;2023-03-31T00:04:07;11.90;99.90
21570;DHT22;57598;50.888;4.746;2023-03-31T00:06:35;11.90;99.90
21570;DHT22;57598;50.888;4.746;2023-03-31T00:09:04;11.90;99.90
21570;DHT22;57598;50.888;4.746;2023-03-31T00:11:33;11.80;99.90
21570;DHT22;57598;50.888;4.746;2023-03-31T00:14:00;11.80;99.90
21570;DHT22;57598;50.888;4.746;2023-03-31T00:16:27;11.90;99.90
21570;DHT22;57598;50.888;4.746;2023-03-31T00:18:54;11.90;99.90
21570;DHT22;57598;50.888;4.746;2023-03-31T00:21:22;11.80;99.90
21570;DHT22;57598;50.888;4.746;2023-03-31T00:24:02;11.80;99.90
21570;DHT22;57598;50.888;4.746;2023-03-31T00:26:29;11.90;99.90
21570;DHT22;57598;50.888;4.746;2023-03-31T00:28:58;11.90;99.90
21570;DHT22;57598;50.888;4.746;2023-03-31T00:31:26;11.90;99.90
21570;DHT22;57598;50.888;4.746;2023-03-31T00:33:54;11.90;99.90
21570;DHT22;57598;50.888;4.746;2023-03-31T00:36:21;11.90;99.90
21570;DHT22;57598;50.888;4.746;2023-03-31T00:38:52;11.90;99.90
21570;DHT22;57598;50.888;4.746;2023-03-31T00:41:19;11.90;99.90
21570;DHT22;57598;50.888;4.746;2023-03-31T00:44:03;11.90;99.90
21570;DHT22;57598;50.888;4.746;2023-03-31T00:46:33;11.90;99.90
21570;DHT22;57598;50.888;4.746;2023-03-31T00:49:03;11.80;99.90
21570;DHT22;57598;50.888;4.746;2023-03-31T00:51:32;11.80;99.90
21570;DHT22;57598;50.888;4.746;2023-03-31T00:54:02;11.70;99.90
21570;DHT22;57598;50.888;4.746;2023-03-31T00:56:33;11.70;99.90
21570;DHT22;57598;50.888;4.746;2023-03-31T00:59:06;11.50;99.90
21570;DHT22;57598;50.888;4.746;2023-03-31T01:01:35;11.40;99.90
21570;DHT22;57598;50.888;4.746;2023-03-31T01:04:04;11.30;99.90
21570;DHT22;57598;50.888;4.746;2023-03-31T01:06:37;11.30;99.90
21570;DHT22;57598;50.888;4.746;2023-03-31T01:09:11;11.20;99.90
21570;DHT22;57598;50.888;4.746;2023-03-31T01:11:43;11.20;99.90
21570;DHT22;57598;50.888;4.746;2023-03-31T01:14:12;11.20;99.90
21570;DHT22;57598;50.888;4.746;2023-03-31T01:16:40;11.30;99.90
21570;DHT22;57598;50.888;4.746;2023-03-31T01:19:12;11.20;99.90
21570;DHT22;57598;50.888;4.746;2023-03-31T01:27:42;11.20;99.90
21570;DHT22;57598;50.888;4.746;2023-03-31T01:42:51;11.10;99.90
21570;DHT22;57598;50.888;4.746;2023-03-31T01:45:27;11.10;99.90
21570;DHT22;57598;50.888;4.746;2023-03-31T01:48:01;11.10;99.90
21570;DHT22;57598;50.888;4.746;2023-03-31T01:50:35;11.20;99.90
21570;DHT22;57598;50.888;4.746;2023-03-31T01:53:09;11.10;99.90
21570;DHT22;57598;50.888;4.746;2023-03-31T01:55:45;11.10;99.90
21570;DHT22;57598;50.888;4.746;2023-03-31T01:58:18;11.10;99.90
21570;DHT22;57598;50.888;4.746;2023-03-31T02:00:50;11.00;99.90
21570;DHT22;57598;50.888;4.746;2023-03-31T02:03:24;11.00;99.90
21570;DHT22;57598;50.888;4.746;2023-03-31T02:05:55;11.00;99.90
21570;DHT22;57598;50.888;4.746;2023-03-31T02:08:26;11.00;99.90
21570;DHT22;57598;50.888;4.746;2023-03-31T02:10:56;10.90;99.90
21570;DHT22;57598;50.888;4.746;2023-03-31T02:13:27;10.90;99.90
21570;DHT22;57598;50.888;4.746;2023-03-31T02:15:57;10.90;99.90
21570;DHT22;57598;50.888;4.746;2023-03-31T02:18:30;11.00;99.90
21570;DHT22;57598;50.888;4.746;2023-03-31T02:21:03;10.90;99.90
21570;DHT22;57598;50.888;4.746;2023-03-31T02:23:32;10.80;99.90
21570;DHT22;57598;50.888;4.746;2023-03-31T02:26:01;10.80;99.90
21570;DHT22;57598;50.888;4.746;2023-03-31T02:28:31;10.80;99.90
21570;DHT22;57598;50.888;4.746;2023-03-31T02:31:10;10.80;99.90
21570;DHT22;57598;50.888;4.746;2023-03-31T02:33:40;10.80;99.90
21570;DHT22;57598;50.888;4.746;2023-03-31T02:36:08;10.70;99.90
21570;DHT22;57598;50.888;4.746;2023-03-31T02:38:37;10.70;99.90
21570;DHT22;57598;50.888;4.746;2023-03-31T02:41:05;10.70;99.90
21570;DHT22;57598;50.888;4.746;2023-03-31T02:43:34;10.70;99.90
21570;DHT22;57598;50.888;4.746;2023-03-31T02:46:01;10.70;99.90
21570;DHT22;57598;50.888;4.746;2023-03-31T02:48:30;10.70;99.90
21570;DHT22;57598;50.888;4.746;2023-03-31T03:01:14;10.60;99.90
21570;DHT22;57598;50.888;4.746;2023-03-31T03:03:54;10.60;99.90
21570;DHT22;57598;50.888;4.746;2023-03-31T03:06:35;10.60;99.90
21570;DHT22;57598;50.888;4.746;2023-03-31T03:09:10;10.60;99.90
21570;DHT22;57598;50.888;4.746;2023-03-31T03:11:46;10.60;99.90
21570;DHT22;57598;50.888;4.746;2023-03-31T03:14:25;10.50;99.90
21570;DHT22;57598;50.888;4.746;2023-03-31T03:16:58;10.60;99.90
21570;DHT22;57598;50.888;4.746;2023-03-31T03:19:27;10.60;99.90
21570;DHT22;57598;50.888;4.746;2023-03-31T03:21:54;10.60;99.90
21570;DHT22;57598;50.888;4.746;2023-03-31T03:24:21;10.60;99.90
21570;DHT22;57598;50.888;4.746;2023-03-31T03:26:48;10.60;99.90
21570;DHT22;57598;50.888;4.746;2023-03-31T03:29:16;10.60;99.90
21570;DHT22;57598;50.888;4.746;2023-03-31T03:31:43;10.60;99.90
21570;DHT22;57598;50.888;4.746;2023-03-31T03:34:12;10.60;99.90
21570;DHT22;57598;50.888;4.746;2023-03-31T03:36:39;10.60;99.90
21570;DHT22;57598;50.888;4.746;2023-03-31T03:39:06;10.60;99.90
21570;DHT22;57598;50.888;4.746;2023-03-31T03:41:34;10.60;99.90
21570;DHT22;57598;50.888;4.746;2023-03-31T03:44:01;10.60;99.90
21570;DHT22;57598;50.888;4.746;2023-03-31T03:46:28;10.60;99.90
21570;DHT22;57598;50.888;4.746;2023-03-31T03:48:55;10.60;99.90
21570;DHT22;57598;50.888;4.746;2023-03-31T03:51:23;10.70;99.90
21570;DHT22;57598;50.888;4.746;2023-03-31T03:53:50;10.70;99.90
21570;DHT22;57598;50.888;4.746;2023-03-31T03:56:17;10.70;99.90
21570;DHT22;57598;50.888;4.746;2023-03-31T03:58:44;10.70;99.90
21570;DHT22;57598;50.888;4.746;2023-03-31T04:01:11;10.70;99.90
21570;DHT22;57598;50.888;4.746;2023-03-31T04:03:38;10.70;99.90
21570;DHT22;57598;50.888;4.746;2023-03-31T04:06:06;10.70;99.90
21570;DHT22;57598;50.888;4.746;2023-03-31T04:08:34;10.70;99.90
21570;DHT22;57598;50.888;4.746;2023-03-31T04:11:01;10.70;99.90
21570;DHT22;57598;50.888;4.746;2023-03-31T04:13:29;10.70;99.90
21570;DHT22;57598;50.888;4.746;2023-03-31T04:15:55;10.70;99.90
21570;DHT22;57598;50.888;4.746;2023-03-31T04:18:22;10.70;99.90
21570;DHT22;57598;50.888;4.746;2023-03-31T04:20:49;10.60;99.90
21570;DHT22;57598;50.888;4.746;2023-03-31T04:23:28;10.60;99.90
21570;DHT22;57598;50.888;4.746;2023-03-31T04:25:57;10.60;99.90
21570;DHT22;57598;50.888;4.746;2023-03-31T04:28:24;10.60;99.90
21570;DHT22;57598;50.888;4.746;2023-03-31T04:30:51;10.60;99.90
21570;DHT22;57598;50.888;4.746;2023-03-31T04:33:19;10.60;99.90
21570;DHT22;57598;50.888;4.746;2023-03-31T04:35:48;10.60;99.90
21570;DHT22;57598;50.888;4.746;2023-03-31T04:38:15;10.50;99.90
21570;DHT22;57598;50.888;4.746;2023-03-31T04:40:45;10.60;99.90
21570;DHT22;57598;50.888;4.746;2023-03-31T04:43:14;10.60;99.90
21570;DHT22;57598;50.888;4.746;2023-03-31T04:45:41;10.60;99.90
21570;DHT22;57598;50.888;4.746;2023-03-31T04:48:09;10.60;99.90
21570;DHT22;57598;50.888;4.746;2023-03-31T04:50:36;10.60;99.90
21570;DHT22;57598;50.888;4.746;2023-03-31T04:53:03;10.60;99.90
21570;DHT22;57598;50.888;4.746;2023-03-31T04:55:31;10.60;99.90
21570;DHT22;57598;50.888;4.746;2023-03-31T04:57:58;10.60;99.90
21570;DHT22;57598;50.888;4.746;2023-03-31T05:00:26;10.60;99.90
21570;DHT22;57598;50.888;4.746;2023-03-31T05:02:54;10.70;99.90
21570;DHT22;57598;50.888;4.746;2023-03-31T05:05:21;10.70;99.90
21570;DHT22;57598;50.888;4.746;2023-03-31T05:07:48;10.70;99.90
21570;DHT22;57598;50.888;4.746;2023-03-31T05:10:16;10.70;99.90
21570;DHT22;57598;50.888;4.746;2023-03-31T05:12:43;10.70;99.90
21570;DHT22;57598;50.888;4.746;2023-03-31T05:15:10;10.70;99.90
21570;DHT22;57598;50.888;4.746;2023-03-31T05:17:39;10.70;99.90
21570;DHT22;57598;50.888;4.746;2023-03-31T05:20:06;10.70;99.90
21570;DHT22;57598;50.888;4.746;2023-03-31T05:22:35;10.80;99.90
21570;DHT22;57598;50.888;4.746;2023-03-31T05:25:03;10.90;99.90
21570;DHT22;57598;50.888;4.746;2023-03-31T05:27:30;10.90;99.90
21570;DHT22;57598;50.888;4.746;2023-03-31T05:29:57;10.90;99.90
21570;DHT22;57598;50.888;4.746;2023-03-31T05:32:25;10.80;99.90
21570;DHT22;57598;50.888;4.746;2023-03-31T05:34:54;10.80;99.90
21570;DHT22;57598;50.888;4.746;2023-03-31T05:37:22;10.80;99.90
21570;DHT22;57598;50.888;4.746;2023-03-31T05:39:50;10.80;99.90
21570;DHT22;57598;50.888;4.746;2023-03-31T05:42:18;10.80;99.90
21570;DHT22;57598;50.888;4.746;2023-03-31T05:44:45;10.80;99.90
21570;DHT22;57598;50.888;4.746;2023-03-31T05:47:13;10.70;99.90
21570;DHT22;57598;50.888;4.746;2023-03-31T05:49:40;10.80;99.90
21570;DHT22;57598;50.888;4.746;2023-03-31T05:52:09;10.70;99.90
21570;DHT22;57598;50.888;4.746;2023-03-31T05:54:36;10.80;99.90
21570;DHT22;57598;50.888;4.746;2023-03-31T05:57:03;10.80;99.90
21570;DHT22;57598;50.888;4.746;2023-03-31T05:59:31;10.80;99.90
21570;DHT22;57598;50.888;4.746;2023-03-31T06:02:00;10.80;99.90
21570;DHT22;57598;50.888;4.746;2023-03-31T06:04:27;10.80;99.90
21570;DHT22;57598;50.888;4.746;2023-03-31T06:06:54;10.80;99.90
21570;DHT22;57598;50.888;4.746;2023-03-31T06:09:25;10.90;99.90
21570;DHT22;57598;50.888;4.746;2023-03-31T06:11:53;10.90;99.90
21570;DHT22;57598;50.888;4.746;2023-03-31T06:14:20;11.00;99.90
21570;DHT22;57598;50.888;4.746;2023-03-31T06:16:47;10.90;99.90
21570;DHT22;57598;50.888;4.746;2023-03-31T06:19:14;11.00;99.90
21570;DHT22;57598;50.888;4.746;2023-03-31T06:21:41;11.00;99.90
21570;DHT22;57598;50.888;4.746;2023-03-31T06:24:08;11.00;99.90
21570;DHT22;57598;50.888;4.746;2023-03-31T06:26:37;11.10;99.90
21570;DHT22;57598;50.888;4.746;2023-03-31T06:29:04;11.10;99.90
21570;DHT22;57598;50.888;4.746;2023-03-31T06:31:31;11.20;99.90
21570;DHT22;57598;50.888;4.746;2023-03-31T06:33:59;11.20;99.90
21570;DHT22;57598;50.888;4.746;2023-03-31T06:36:26;11.20;99.90
21570;DHT22;57598;50.888;4.746;2023-03-31T06:38:53;11.30;99.90
21570;DHT22;57598;50.888;4.746;2023-03-31T06:41:20;11.30;99.90
21570;DHT22;57598;50.888;4.746;2023-03-31T06:43:49;11.30;99.90
21570;DHT22;57598;50.888;4.746;2023-03-31T06:46:16;11.30;99.90
21570;DHT22;57598;50.888;4.746;2023-03-31T06:48:43;11.40;99.90
21570;DHT22;57598;50.888;4.746;2023-03-31T06:51:11;11.50;99.90
21570;DHT22;57598;50.888;4.746;2023-03-31T06:53:38;11.60;99.90
21570;DHT22;57598;50.888;4.746;2023-03-31T06:56:06;11.60;99.90
21570;DHT22;57598;50.888;4.746;2023-03-31T06:58:33;11.70;99.90
21570;DHT22;57598;50.888;4.746;2023-03-31T07:01:03;11.80;99.90
21570;DHT22;57598;50.888;4.746;2023-03-31T07:03:30;11.80;99.90
21570;DHT22;57598;50.888;4.746;2023-03-31T07:05:58;11.90;99.90
21570;DHT22;57598;50.888;4.746;2023-03-31T07:08:25;12.00;99.90
21570;DHT22;57598;50.888;4.746;2023-03-31T07:10:54;12.00;99.90
21570;DHT22;57598;50.888;4.746;2023-03-31T07:13:22;12.10;99.90
21570;DHT22;57598;50.888;4.746;2023-03-31T07:15:50;12.10;99.90
21570;DHT22;57598;50.888;4.746;2023-03-31T07:18:19;12.30;99.90
21570;DHT22;57598;50.888;4.746;2023-03-31T07:20:51;12.30;99.90
21570;DHT22;57598;50.888;4.746;2023-03-31T07:23:19;12.30;99.90
21570;DHT22;57598;50.888;4.746;2023-03-31T07:25:46;12.40;99.90
21570;DHT22;57598;50.888;4.746;2023-03-31T07:28:13;12.30;99.90
21570;DHT22;57598;50.888;4.746;2023-03-31T07:30:40;12.40;99.90
21570;DHT22;57598;50.888;4.746;2023-03-31T07:33:07;12.40;99.90
21570;DHT22;57598;50.888;4.746;2023-03-31T07:35:38;12.40;99.90
21570;DHT22;57598;50.888;4.746;2023-03-31T07:38:07;12.40;99.90
21570;DHT22;57598;50.888;4.746;2023-03-31T07:40:34;12.40;99.90
21570;DHT22;57598;50.888;4.746;2023-03-31T07:43:01;12.50;99.90
21570;DHT22;57598;50.888;4.746;2023-03-31T07:45:28;12.50;99.90
21570;DHT22;57598;50.888;4.746;2023-03-31T07:47:55;12.40;99.90
21570;DHT22;57598;50.888;4.746;2023-03-31T07:50:22;12.50;99.90
21570;DHT22;57598;50.888;4.746;2023-03-31T07:52:51;12.50;99.90
21570;DHT22;57598;50.888;4.746;2023-03-31T07:55:19;12.50;99.90
21570;DHT22;57598;50.888;4.746;2023-03-31T07:57:48;12.60;99.90
21570;DHT22;57598;50.888;4.746;2023-03-31T08:00:17;12.60;99.90
21570;DHT22;57598;50.888;4.746;2023-03-31T08:02:44;12.60;99.90
21570;DHT22;57598;50.888;4.746;2023-03-31T08:05:13;12.40;99.90
21570;DHT22;57598;50.888;4.746;2023-03-31T08:07:43;12.10;99.90
21570;DHT22;57598;50.888;4.746;2023-03-31T08:10:14;11.90;99.90
21570;DHT22;57598;50.888;4.746;2023-03-31T08:12:41;11.90;99.90
21570;DHT22;57598;50.888;4.746;2023-03-31T08:15:09;12.00;99.90
21570;DHT22;57598;50.888;4.746;2023-03-31T08:17:36;12.00;99.90
21570;DHT22;57598;50.888;4.746;2023-03-31T08:20:05;12.00;99.90
21570;DHT22;57598;50.888;4.746;2023-03-31T08:22:33;12.10;99.90
21570;DHT22;57598;50.888;4.746;2023-03-31T08:25:00;12.20;99.90
21570;DHT22;57598;50.888;4.746;2023-03-31T08:27:32;12.20;99.90
21570;DHT22;57598;50.888;4.746;2023-03-31T08:29:59;12.30;99.90
21570;DHT22;57598;50.888;4.746;2023-03-31T08:32:29;12.30;99.90
21570;DHT22;57598;50.888;4.746;2023-03-31T08:34:56;12.30;99.90
21570;DHT22;57598;50.888;4.746;2023-03-31T08:37:23;12.30;99.90
21570;DHT22;57598;50.888;4.746;2023-03-31T08:39:50;12.20;99.90
21570;DHT22;57598;50.888;4.746;2023-03-31T08:42:21;12.10;99.90
21570;DHT22;57598;50.888;4.746;2023-03-31T08:44:56;12.00;99.90
21570;DHT22;57598;50.888;4.746;2023-03-31T08:47:26;12.00;99.90
21570;DHT22;57598;50.888;4.746;2023-03-31T08:49:59;12.10;99.90
21570;DHT22;57598;50.888;4.746;2023-03-31T08:52:32;12.10;99.90
21570;DHT22;57598;50.888;4.746;2023-03-31T08:55:04;12.10;99.90
21570;DHT22;57598;50.888;4.746;2023-03-31T08:57:37;12.10;99.90
21570;DHT22;57598;50.888;4.746;2023-03-31T09:00:14;12.00;99.90
21570;DHT22;57598;50.888;4.746;2023-03-31T09:02:45;12.10;99.90
21570;DHT22;57598;50.888;4.746;2023-03-31T09:05:36;12.10;99.90
21570;DHT22;57598;50.888;4.746;2023-03-31T09:08:12;12.20;99.90
21570;DHT22;57598;50.888;4.746;2023-03-31T09:10:45;12.20;99.90
21570;DHT22;57598;50.888;4.746;2023-03-31T09:13:31;12.30;99.90
21570;DHT22;57598;50.888;4.746;2023-03-31T09:16:08;12.50;99.90
21570;DHT22;57598;50.888;4.746;2023-03-31T09:18:39;12.60;99.90
21570;DHT22;57598;50.888;4.746;2023-03-31T09:21:17;12.40;99.90
21570;DHT22;57598;50.888;4.746;2023-03-31T09:23:49;12.40;99.90
21570;DHT22;57598;50.888;4.746;2023-03-31T09:26:23;12.40;99.90
21570;DHT22;57598;50.888;4.746;2023-03-31T09:28:52;12.40;99.90
21570;DHT22;57598;50.888;4.746;2023-03-31T09:31:21;12.40;99.90
21570;DHT22;57598;50.888;4.746;2023-03-31T09:33:52;12.40;99.90
21570;DHT22;57598;50.888;4.746;2023-03-31T09:36:21;12.40;99.90
21570;DHT22;57598;50.888;4.746;2023-03-31T09:38:48;12.50;99.90
21570;DHT22;57598;50.888;4.746;2023-03-31T09:41:17;12.50;99.90
21570;DHT22;57598;50.888;4.746;2023-03-31T09:43:46;12.60;99.90
21570;DHT22;57598;50.888;4.746;2023-03-31T09:46:27;12.70;99.90
21570;DHT22;57598;50.888;4.746;2023-03-31T09:49:00;13.00;99.90
21570;DHT22;57598;50.888;4.746;2023-03-31T09:51:31;13.30;99.90
21570;DHT22;57598;50.888;4.746;2023-03-31T09:54:06;13.90;99.90
21570;DHT22;57598;50.888;4.746;2023-03-31T09:56:45;14.10;99.90
21570;DHT22;57598;50.888;4.746;2023-03-31T09:59:16;14.20;99.90
21570;DHT22;57598;50.888;4.746;2023-03-31T10:01:46;14.50;99.90
21570;DHT22;57598;50.888;4.746;2023-03-31T10:04:22;14.40;99.90
21570;DHT22;57598;50.888;4.746;2023-03-31T10:06:50;14.30;99.90
21570;DHT22;57598;50.888;4.746;2023-03-31T10:09:19;14.00;99.90
21570;DHT22;57598;50.888;4.746;2023-03-31T10:11:58;14.00;99.90
21570;DHT22;57598;50.888;4.746;2023-03-31T10:14:37;14.00;99.90
21570;DHT22;57598;50.888;4.746;2023-03-31T10:17:13;13.80;99.90
21570;DHT22;57598;50.888;4.746;2023-03-31T10:19:47;13.70;99.90
21570;DHT22;57598;50.888;4.746;2023-03-31T10:22:15;13.50;99.90
21570;DHT22;57598;50.888;4.746;2023-03-31T10:24:44;13.30;99.90
21570;DHT22;57598;50.888;4.746;2023-03-31T10:27:17;13.30;99.90
21570;DHT22;57598;50.888;4.746;2023-03-31T10:29:46;13.40;99.90
21570;DHT22;57598;50.888;4.746;2023-03-31T10:32:20;13.50;99.90
21570;DHT22;57598;50.888;4.746;2023-03-31T10:34:48;13.50;99.90
21570;DHT22;57598;50.888;4.746;2023-03-31T10:37:18;13.60;99.90
21570;DHT22;57598;50.888;4.746;2023-03-31T10:39:47;13.70;99.90
21570;DHT22;57598;50.888;4.746;2023-03-31T10:42:22;13.70;99.90
21570;DHT22;57598;50.888;4.746;2023-03-31T10:45:09;13.90;99.90
21570;DHT22;57598;50.888;4.746;2023-03-31T10:47:39;14.00;99.90
21570;DHT22;57598;50.888;4.746;2023-03-31T10:50:13;14.10;99.90
21570;DHT22;57598;50.888;4.746;2023-03-31T10:52:44;14.10;99.90
21570;DHT22;57598;50.888;4.746;2023-03-31T10:55:13;14.00;99.90
21570;DHT22;57598;50.888;4.746;2023-03-31T10:57:45;14.00;99.90
21570;DHT22;57598;50.888;4.746;2023-03-31T11:00:21;13.90;99.90
21570;DHT22;57598;50.888;4.746;2023-03-31T11:06:09;14.00;99.90
21570;DHT22;57598;50.888;4.746;2023-03-31T11:08:48;13.80;99.90
21570;DHT22;57598;50.888;4.746;2023-03-31T11:11:48;13.50;99.90
21570;DHT22;57598;50.888;4.746;2023-03-31T11:14:24;13.10;99.90
21570;DHT22;57598;50.888;4.746;2023-03-31T11:16:59;13.00;99.90
21570;DHT22;57598;50.888;4.746;2023-03-31T11:19:36;12.80;99.90
21570;DHT22;57598;50.888;4.746;2023-03-31T11:22:13;12.70;99.90
21570;DHT22;57598;50.888;4.746;2023-03-31T11:25:11;12.70;99.90
21570;DHT22;57598;50.888;4.746;2023-03-31T11:30:42;12.50;99.90
21570;DHT22;57598;50.888;4.746;2023-03-31T11:33:31;12.60;99.90
21570;DHT22;57598;50.888;4.746;2023-03-31T11:36:10;12.70;99.90
21570;DHT22;57598;50.888;4.746;2023-03-31T11:38:57;12.90;99.90
21570;DHT22;57598;50.888;4.746;2023-03-31T11:41:32;13.00;99.90
21570;DHT22;57598;50.888;4.746;2023-03-31T11:44:01;13.10;99.90
21570;DHT22;57598;50.888;4.746;2023-03-31T11:46:38;13.20;99.90
21570;DHT22;57598;50.888;4.746;2023-03-31T11:49:13;13.30;99.90
21570;DHT22;57598;50.888;4.746;2023-03-31T11:51:43;13.40;99.90
21570;DHT22;57598;50.888;4.746;2023-03-31T11:54:18;13.60;99.90
21570;DHT22;57598;50.888;4.746;2023-03-31T11:56:46;13.90;99.90
21570;DHT22;57598;50.888;4.746;2023-03-31T11:59:15;14.20;99.90
21570;DHT22;57598;50.888;4.746;2023-03-31T12:01:47;14.40;99.90
21570;DHT22;57598;50.888;4.746;2023-03-31T12:04:24;14.50;99.90
21570;DHT22;57598;50.888;4.746;2023-03-31T12:06:59;14.80;99.90
21570;DHT22;57598;50.888;4.746;2023-03-31T12:09:54;14.90;99.90
21570;DHT22;57598;50.888;4.746;2023-03-31T12:12:34;15.10;99.90
21570;DHT22;57598;50.888;4.746;2023-03-31T12:15:12;14.90;99.90
21570;DHT22;57598;50.888;4.746;2023-03-31T12:17:42;14.70;99.90
21570;DHT22;57598;50.888;4.746;2023-03-31T12:20:20;14.40;99.90
21570;DHT22;57598;50.888;4.746;2023-03-31T12:22:50;14.10;99.90
21570;DHT22;57598;50.888;4.746;2023-03-31T12:25:38;13.60;99.90
21570;DHT22;57598;50.888;4.746;2023-03-31T12:28:09;13.30;99.90
21570;DHT22;57598;50.888;4.746;2023-03-31T12:30:38;13.10;99.90
21570;DHT22;57598;50.888;4.746;2023-03-31T12:33:15;12.70;99.90
21570;DHT22;57598;50.888;4.746;2023-03-31T12:36:01;12.40;99.90
21570;DHT22;57598;50.888;4.746;2023-03-31T12:38:49;12.20;99.90
21570;DHT22;57598;50.888;4.746;2023-03-31T12:41:28;12.10;99.90
21570;DHT22;57598;50.888;4.746;2023-03-31T12:44:05;12.00;99.90
21570;DHT22;57598;50.888;4.746;2023-03-31T12:46:49;12.00;99.90
21570;DHT22;57598;50.888;4.746;2023-03-31T12:49:35;12.10;99.90
21570;DHT22;57598;50.888;4.746;2023-03-31T12:52:12;12.20;99.90
21570;DHT22;57598;50.888;4.746;2023-03-31T12:55:20;12.30;99.90
21570;DHT22;57598;50.888;4.746;2023-03-31T13:01:23;12.40;99.90
21570;DHT22;57598;50.888;4.746;2023-03-31T13:03:53;12.40;99.90
21570;DHT22;57598;50.888;4.746;2023-03-31T13:06:52;12.40;99.90
21570;DHT22;57598;50.888;4.746;2023-03-31T13:09:47;12.40;99.90
21570;DHT22;57598;50.888;4.746;2023-03-31T13:12:20;12.40;99.90
21570;DHT22;57598;50.888;4.746;2023-03-31T13:14:51;12.40;99.90
21570;DHT22;57598;50.888;4.746;2023-03-31T13:17:28;12.40;99.90
21570;DHT22;57598;50.888;4.746;2023-03-31T13:20:15;12.50;99.90
21570;DHT22;57598;50.888;4.746;2023-03-31T13:22:45;12.50;99.90
21570;DHT22;57598;50.888;4.746;2023-03-31T13:25:33;12.60;99.90
21570;DHT22;57598;50.888;4.746;2023-03-31T13:28:09;12.70;99.90
21570;DHT22;57598;50.888;4.746;2023-03-31T13:30:51;12.80;99.90
21570;DHT22;57598;50.888;4.746;2023-03-31T13:33:33;12.90;99.90
21570;DHT22;57598;50.888;4.746;2023-03-31T13:36:29;12.90;99.90
21570;DHT22;57598;50.888;4.746;2023-03-31T13:39:14;12.80;99.90
21570;DHT22;57598;50.888;4.746;2023-03-31T13:41:52;12.20;99.90
21570;DHT22;57598;50.888;4.746;2023-03-31T13:44:44;12.10;99.90
21570;DHT22;57598;50.888;4.746;2023-03-31T13:50:45;12.40;99.90
21570;DHT22;57598;50.888;4.746;2023-03-31T13:53:31;12.40;99.90
21570;DHT22;57598;50.888;4.746;2023-03-31T13:56:14;12.50;99.90
21570;DHT22;57598;50.888;4.746;2023-03-31T13:59:24;12.50;99.90
21570;DHT22;57598;50.888;4.746;2023-03-31T14:02:10;12.50;99.90
21570;DHT22;57598;50.888;4.746;2023-03-31T14:04:58;12.30;99.90
21570;DHT22;57598;50.888;4.746;2023-03-31T14:07:31;12.20;99.90
21570;DHT22;57598;50.888;4.746;2023-03-31T14:10:00;12.10;99.90
21570;DHT22;57598;50.888;4.746;2023-03-31T14:12:30;12.00;99.90
21570;DHT22;57598;50.888;4.746;2023-03-31T14:14:58;12.00;99.90
21570;DHT22;57598;50.888;4.746;2023-03-31T14:17:27;12.00;99.90
21570;DHT22;57598;50.888;4.746;2023-03-31T14:20:26;12.00;99.90
21570;DHT22;57598;50.888;4.746;2023-03-31T14:23:03;12.00;99.90
21570;DHT22;57598;50.888;4.746;2023-03-31T14:25:40;12.00;99.90
21570;DHT22;57598;50.888;4.746;2023-03-31T14:28:20;12.10;99.90
21570;DHT22;57598;50.888;4.746;2023-03-31T14:30:58;12.10;99.90
21570;DHT22;57598;50.888;4.746;2023-03-31T14:33:35;12.10;99.90
21570;DHT22;57598;50.888;4.746;2023-03-31T14:36:10;12.10;99.90
21570;DHT22;57598;50.888;4.746;2023-03-31T14:38:42;11.90;99.90
21570;DHT22;57598;50.888;4.746;2023-03-31T14:41:16;11.90;99.90
21570;DHT22;57598;50.888;4.746;2023-03-31T14:43:48;12.00;99.90
21570;DHT22;57598;50.888;4.746;2023-03-31T14:46:19;12.10;99.90
21570;DHT22;57598;50.888;4.746;2023-03-31T14:48:48;12.30;99.90
21570;DHT22;57598;50.888;4.746;2023-03-31T14:51:17;12.40;99.90
21570;DHT22;57598;50.888;4.746;2023-03-31T14:53:46;12.50;99.90
21570;DHT22;57598;50.888;4.746;2023-03-31T14:56:15;12.50;99.90
21570;DHT22;57598;50.888;4.746;2023-03-31T14:58:48;12.50;99.90
21570;DHT22;57598;50.888;4.746;2023-03-31T15:01:20;12.60;99.90
21570;DHT22;57598;50.888;4.746;2023-03-31T15:03:50;12.60;99.90
21570;DHT22;57598;50.888;4.746;2023-03-31T15:06:18;12.50;99.90
21570;DHT22;57598;50.888;4.746;2023-03-31T15:08:46;12.30;99.90
21570;DHT22;57598;50.888;4.746;2023-03-31T15:11:16;12.20;99.90
21570;DHT22;57598;50.888;4.746;2023-03-31T15:13:47;12.20;99.90
21570;DHT22;57598;50.888;4.746;2023-03-31T15:16:29;12.20;99.90
21570;DHT22;57598;50.888;4.746;2023-03-31T15:18:58;12.00;99.90
21570;DHT22;57598;50.888;4.746;2023-03-31T15:21:27;11.70;99.90
21570;DHT22;57598;50.888;4.746;2023-03-31T15:23:58;11.60;99.90
21570;DHT22;57598;50.888;4.746;2023-03-31T15:26:30;11.70;99.90
21570;DHT22;57598;50.888;4.746;2023-03-31T15:29:04;12.00;99.90
21570;DHT22;57598;50.888;4.746;2023-03-31T15:31:34;12.20;99.90
21570;DHT22;57598;50.888;4.746;2023-03-31T15:34:13;12.30;99.90
21570;DHT22;57598;50.888;4.746;2023-03-31T15:36:40;12.30;99.90
21570;DHT22;57598;50.888;4.746;2023-03-31T15:39:10;12.30;99.90
21570;DHT22;57598;50.888;4.746;2023-03-31T15:41:39;12.20;99.90
21570;DHT22;57598;50.888;4.746;2023-03-31T15:44:27;12.20;99.90
21570;DHT22;57598;50.888;4.746;2023-03-31T15:46:58;12.20;99.90
21570;DHT22;57598;50.888;4.746;2023-03-31T15:49:26;12.30;99.90
21570;DHT22;57598;50.888;4.746;2023-03-31T15:51:54;12.30;99.90
21570;DHT22;57598;50.888;4.746;2023-03-31T15:54:32;12.30;99.90
21570;DHT22;57598;50.888;4.746;2023-03-31T15:57:01;12.30;99.90
21570;DHT22;57598;50.888;4.746;2023-03-31T15:59:30;12.30;99.90
21570;DHT22;57598;50.888;4.746;2023-03-31T16:01:57;12.30;99.90
21570;DHT22;57598;50.888;4.746;2023-03-31T16:04:30;12.30;99.90
21570;DHT22;57598;50.888;4.746;2023-03-31T16:07:01;12.30;99.90
21570;DHT22;57598;50.888;4.746;2023-03-31T16:09:40;12.30;99.90
21570;DHT22;57598;50.888;4.746;2023-03-31T16:12:14;12.30;99.90
21570;DHT22;57598;50.888;4.746;2023-03-31T16:14:46;12.30;99.90
21570;DHT22;57598;50.888;4.746;2023-03-31T16:17:21;12.40;99.90
21570;DHT22;57598;50.888;4.746;2023-03-31T16:19:52;12.30;99.90
21570;DHT22;57598;50.888;4.746;2023-03-31T16:22:23;12.40;99.90
21570;DHT22;57598;50.888;4.746;2023-03-31T16:24:53;12.50;99.90
21570;DHT22;57598;50.888;4.746;2023-03-31T16:27:21;12.50;99.90
21570;DHT22;57598;50.888;4.746;2023-03-31T16:29:48;12.40;99.90
21570;DHT22;57598;50.888;4.746;2023-03-31T16:32:16;12.40;99.90
21570;DHT22;57598;50.888;4.746;2023-03-31T16:34:52;12.40;99.90
21570;DHT22;57598;50.888;4.746;2023-03-31T16:37:19;12.30;99.90
21570;DHT22;57598;50.888;4.746;2023-03-31T16:39:47;12.30;99.90
21570;DHT22;57598;50.888;4.746;2023-03-31T16:42:15;12.30;99.90